Time;durP1;ratioP1;P1;durP2;ratioP2;P2;SDS_P1;SDS_P2;PMS_P1;PMS_P2;Temp;Humidity;BMP_temperature;BMP_pressure;BME280_temperature;BME280_humidity;BME280_pressure;Samples;Min_cycle;Max_cycle;Signal;HPM_P1;HPM_P2
2023/09/24 00:00:16;;;;;;;10.68;4.05;;;;;;;;;;6252460;23;20034;-89
2023/09/24 00:02:43;;;;;;;12.90;4.53;;;;;;;;;;6252874;23;20012;-88
2023/09/24 00:05:12;;;;;;;8.30;4.25;;;;;;;;;;6252587;23;20024;-86
2023/09/24 00:07:38;;;;;;;10.70;4.80;;;;;;;;;;6226155;23;20004;-87
2023/09/24 00:10:05;;;;;;;7.45;4.80;;;;;;;;;;6252906;23;20007;-87
2023/09/24 00:12:31;;;;;;;12.50;4.93;;;;;;;;;;6226027;23;20004;-87
2023/09/24 00:14:57;;;;;;;8.60;4.28;;;;;;;;;;6252042;23;20046;-87
2023/09/24 00:17:23;;;;;;;11.45;4.80;;;;;;;;;;6225891;23;20016;-87
2023/09/24 00:19:49;;;;;;;9.95;4.40;;;;;;;;;;6252170;23;20493;-88
2023/09/24 00:22:15;;;;;;;9.57;4.45;;;;;;;;;;6226085;23;20385;-87
2023/09/24 00:24:42;;;;;;;11.48;4.32;;;;;;;;;;6252875;23;20008;-88
2023/09/24 00:27:09;;;;;;;11.75;4.75;;;;;;;;;;6252570;22;20004;-87
2023/09/24 00:29:35;;;;;;;9.23;4.57;;;;;;;;;;6251963;23;20011;-88
2023/09/24 00:32:01;;;;;;;8.48;4.30;;;;;;;;;;6225684;23;20004;-88
2023/09/24 00:34:27;;;;;;;10.50;4.43;;;;;;;;;;6225702;23;20008;-87
2023/09/24 00:36:53;;;;;;;12.57;4.25;;;;;;;;;;6252483;23;20000;-87
2023/09/24 00:39:20;;;;;;;8.20;4.00;;;;;;;;;;6225647;23;20011;-87
2023/09/24 00:41:46;;;;;;;10.45;4.40;;;;;;;;;;6252528;23;20000;-87
2023/09/24 00:44:14;;;;;;;9.93;4.38;;;;;;;;;;6220333;23;20022;-88
2023/09/24 00:46:44;;;;;;;12.35;4.80;;;;;;;;;;6222170;23;20043;-87
2023/09/24 00:49:14;;;;;;;8.73;3.88;;;;;;;;;;6220620;23;20359;-88
2023/09/24 00:51:41;;;;;;;10.32;3.80;;;;;;;;;;6220538;23;20008;-88
2023/09/24 00:54:08;;;;;;;11.15;4.60;;;;;;;;;;6222442;23;19997;-88
2023/09/24 00:56:34;;;;;;;8.90;3.90;;;;;;;;;;6220425;23;19997;-89
2023/09/24 00:59:00;;;;;;;8.38;3.90;;;;;;;;;;6221577;23;20000;-89
2023/09/24 01:01:29;;;;;;;10.93;4.38;;;;;;;;;;6221709;23;20001;-89
2023/09/24 01:03:55;;;;;;;10.32;4.45;;;;;;;;;;6220337;23;20001;-88
2023/09/24 01:06:21;;;;;;;8.63;3.92;;;;;;;;;;6220436;23;20082;-87
2023/09/24 01:08:48;;;;;;;12.73;3.72;;;;;;;;;;6221965;23;20001;-88
2023/09/24 01:11:15;;;;;;;9.52;4.45;;;;;;;;;;6220377;23;20036;-88
2023/09/24 01:13:42;;;;;;;7.57;4.75;;;;;;;;;;6220257;23;20100;-88
2023/09/24 01:16:09;;;;;;;8.60;4.22;;;;;;;;;;6221313;23;20032;-88
2023/09/24 01:18:36;;;;;;;10.27;4.05;;;;;;;;;;6221385;23;20004;-88
2023/09/24 01:21:02;;;;;;;7.47;3.67;;;;;;;;;;6221352;23;20011;-88
2023/09/24 01:23:29;;;;;;;7.43;4.10;;;;;;;;;;6220343;23;20009;-89
2023/09/24 01:25:56;;;;;;;7.80;4.13;;;;;;;;;;6221759;23;20004;-89
2023/09/24 01:28:22;;;;;;;11.95;4.20;;;;;;;;;;6220083;23;20000;-89
2023/09/24 01:30:48;;;;;;;10.60;3.95;;;;;;;;;;6219757;23;20005;-89
2023/09/24 01:33:14;;;;;;;7.60;3.65;;;;;;;;;;6221196;23;20007;-89
2023/09/24 01:35:40;;;;;;;8.13;4.03;;;;;;;;;;6219989;23;20005;-88
2023/09/24 01:38:07;;;;;;;9.40;3.85;;;;;;;;;;6221442;23;20035;-88
2023/09/24 01:40:35;;;;;;;9.10;4.75;;;;;;;;;;6221703;23;20004;-88
2023/09/24 01:43:04;;;;;;;12.77;4.43;;;;;;;;;;6220909;23;20004;-88
2023/09/24 01:45:33;;;;;;;9.23;4.38;;;;;;;;;;6219865;23;20012;-88
2023/09/24 01:47:59;;;;;;;14.30;5.47;;;;;;;;;;6221542;23;20001;-89
2023/09/24 01:50:27;;;;;;;7.40;4.55;;;;;;;;;;6219783;23;20008;-88
2023/09/24 01:52:57;;;;;;;7.57;5.10;;;;;;;;;;6221151;23;20080;-88
2023/09/24 01:55:24;;;;;;;13.70;5.22;;;;;;;;;;6221433;23;20020;-88
2023/09/24 01:57:51;;;;;;;11.70;4.55;;;;;;;;;;6221524;23;20004;-87
2023/09/24 02:00:20;;;;;;;14.85;5.32;;;;;;;;;;6219937;23;20051;-88
2023/09/24 02:02:48;;;;;;;8.75;5.22;;;;;;;;;;6221600;23;20000;-87
2023/09/24 02:05:15;;;;;;;15.25;5.50;;;;;;;;;;6221289;23;20130;-88
2023/09/24 02:07:41;;;;;;;9.38;5.57;;;;;;;;;;6219370;23;20001;-88
2023/09/24 02:10:08;;;;;;;8.82;5.03;;;;;;;;;;6221075;23;20023;-87
2023/09/24 02:15:40;;;;;;;7.38;5.18;;;;;;;;;;6220934;23;20382;-87
2023/09/24 02:18:07;;;;;;;7.68;5.63;;;;;;;;;;6220661;23;20011;-87
2023/09/24 02:20:33;;;;;;;9.63;5.18;;;;;;;;;;6220616;23;20008;-86
2023/09/24 02:23:00;;;;;;;10.30;5.93;;;;;;;;;;6219495;23;20008;-87
2023/09/24 02:25:28;;;;;;;10.70;5.63;;;;;;;;;;6221195;23;20005;-87
2023/09/24 02:27:55;;;;;;;13.38;6.10;;;;;;;;;;6219269;23;20012;-87
2023/09/24 02:30:22;;;;;;;11.63;6.30;;;;;;;;;;6221243;23;20001;-88
2023/09/24 02:32:48;;;;;;;12.07;6.28;;;;;;;;;;6221134;23;20414;-88
2023/09/24 02:35:14;;;;;;;10.93;6.38;;;;;;;;;;6220875;23;20001;-89
2023/09/24 02:37:45;;;;;;;12.98;6.35;;;;;;;;;;6219856;23;20054;-88
2023/09/24 02:40:15;;;;;;;12.27;6.53;;;;;;;;;;6219925;23;20055;-88
2023/09/24 02:43:00;;;;;;;8.40;6.43;;;;;;;;;;6223418;23;20003;-88
2023/09/24 02:45:27;;;;;;;12.13;6.40;;;;;;;;;;6221483;23;20028;-88
2023/09/24 02:47:54;;;;;;;11.80;6.25;;;;;;;;;;6223347;23;20001;-88
2023/09/24 02:50:24;;;;;;;11.13;5.70;;;;;;;;;;6221783;23;20004;-87
2023/09/24 02:52:59;;;;;;;10.68;5.95;;;;;;;;;;6222522;23;20001;-86
2023/09/24 02:55:26;;;;;;;8.48;5.75;;;;;;;;;;6221589;23;20091;-86
2023/09/24 03:01:18;;;;;;;14.23;6.22;;;;;;;;;;6222965;23;20035;-86
2023/09/24 03:03:44;;;;;;;13.98;6.70;;;;;;;;;;6223036;23;20001;-86
2023/09/24 03:06:10;;;;;;;9.40;6.28;;;;;;;;;;6221201;23;20008;-86
2023/09/24 03:08:36;;;;;;;11.43;6.47;;;;;;;;;;6222605;23;20079;-87
2023/09/24 03:11:03;;;;;;;16.02;6.57;;;;;;;;;;6221473;23;20240;-86
2023/09/24 03:13:29;;;;;;;10.85;6.10;;;;;;;;;;6221221;23;20092;-87
2023/09/24 03:15:55;;;;;;;14.50;6.20;;;;;;;;;;6222503;23;20048;-87
2023/09/24 03:18:21;;;;;;;10.98;6.95;;;;;;;;;;6221423;23;20363;-86
2023/09/24 03:20:47;;;;;;;11.45;6.30;;;;;;;;;;6222407;23;20370;-87
2023/09/24 03:23:13;;;;;;;13.23;7.35;;;;;;;;;;6222341;23;20009;-86
2023/09/24 03:25:40;;;;;;;13.02;6.70;;;;;;;;;;6222531;23;20004;-87
2023/09/24 03:31:15;;;;;;;11.02;6.28;;;;;;;;;;6222466;23;20012;-87
2023/09/24 03:33:42;;;;;;;11.05;6.25;;;;;;;;;;6222809;23;20016;-87
2023/09/24 03:36:08;;;;;;;11.15;6.43;;;;;;;;;;6222395;23;20004;-87
2023/09/24 03:38:37;;;;;;;14.00;5.75;;;;;;;;;;6221218;23;20012;-87
2023/09/24 03:41:04;;;;;;;11.15;6.20;;;;;;;;;;6221326;23;20016;-87
2023/09/24 03:43:30;;;;;;;13.38;6.85;;;;;;;;;;6224305;23;20092;-87
2023/09/24 03:45:56;;;;;;;10.45;6.43;;;;;;;;;;6225982;23;20015;-87
2023/09/24 03:48:23;;;;;;;11.88;6.50;;;;;;;;;;6252935;23;20004;-87
2023/09/24 03:50:50;;;;;;;12.02;7.22;;;;;;;;;;6225963;23;20378;-87
2023/09/24 03:53:18;;;;;;;10.13;6.80;;;;;;;;;;6252421;23;20428;-87
2023/09/24 03:55:45;;;;;;;14.02;6.75;;;;;;;;;;6226048;23;20271;-87
2023/09/24 03:58:11;;;;;;;13.45;6.28;;;;;;;;;;6225923;23;20004;-87
2023/09/24 04:00:37;;;;;;;13.57;6.80;;;;;;;;;;6252851;23;20046;-86
2023/09/24 04:03:03;;;;;;;11.02;7.18;;;;;;;;;;6226019;23;20027;-86
2023/09/24 04:05:30;;;;;;;12.75;6.95;;;;;;;;;;6225872;23;20004;-87
2023/09/24 04:07:56;;;;;;;12.63;7.20;;;;;;;;;;6252666;23;20000;-87
2023/09/24 04:10:23;;;;;;;12.43;7.47;;;;;;;;;;6226182;23;20000;-87
2023/09/24 04:13:03;;;;;;;13.63;6.85;;;;;;;;;;6252206;23;20027;-87
2023/09/24 04:15:30;;;;;;;11.18;7.57;;;;;;;;;;6252696;23;20050;-87
2023/09/24 04:17:56;;;;;;;11.15;6.95;;;;;;;;;;6252528;23;20020;-87
2023/09/24 04:20:23;;;;;;;14.25;7.85;;;;;;;;;;6252442;23;20000;-87
2023/09/24 04:22:49;;;;;;;16.90;7.70;;;;;;;;;;6252800;23;20074;-87
2023/09/24 04:25:21;;;;;;;15.70;7.40;;;;;;;;;;6225888;23;20015;-87
2023/09/24 04:27:48;;;;;;;;;;;;;;;;;;6252813;22;20000;-87
2023/09/24 04:30:17;;;;;;;13.35;7.07;;;;;;;;;;6225798;23;19906;-87
2023/09/24 04:32:43;;;;;;;12.75;8.02;;;;;;;;;;6225881;23;20000;-88
2023/09/24 04:35:11;;;;;;;12.90;7.50;;;;;;;;;;6225713;23;20042;-88
2023/09/24 04:37:39;;;;;;;12.45;7.82;;;;;;;;;;6225502;23;20011;-88
2023/09/24 04:40:06;;;;;;;14.52;8.20;;;;;;;;;;6252098;23;20004;-87
2023/09/24 04:43:02;;;;;;;13.80;7.47;;;;;;;;;;6225763;23;20004;-88
2023/09/24 04:45:29;;;;;;;12.27;7.97;;;;;;;;;;6251912;23;20024;-92
2023/09/24 04:47:55;;;;;;;11.23;7.68;;;;;;;;;;6225769;23;20008;-88
2023/09/24 04:50:25;;;;;;;14.07;8.05;;;;;;;;;;6252267;23;20003;-87
2023/09/24 04:52:54;;;;;;;14.25;8.30;;;;;;;;;;6252713;23;20075;-88
2023/09/24 04:55:20;;;;;;;12.48;8.15;;;;;;;;;;6225995;23;20008;-87
2023/09/24 04:57:47;;;;;;;13.10;8.13;;;;;;;;;;6252528;23;20000;-87
2023/09/24 05:00:14;;;;;;;12.43;8.23;;;;;;;;;;6252406;23;20006;-87
2023/09/24 05:02:40;;;;;;;13.73;8.23;;;;;;;;;;6251885;23;20389;-87
2023/09/24 05:05:07;;;;;;;16.67;7.45;;;;;;;;;;6224668;23;20004;-87
2023/09/24 05:07:33;;;;;;;13.13;8.10;;;;;;;;;;6225350;23;19996;-87
2023/09/24 05:09:59;;;;;;;16.45;8.10;;;;;;;;;;6225570;23;20004;-87
2023/09/24 05:12:44;;;;;;;14.23;7.80;;;;;;;;;;6251894;23;19996;-88
2023/09/24 05:15:10;;;;;;;17.70;8.93;;;;;;;;;;6251493;23;20042;-87
2023/09/24 05:17:36;;;;;;;19.75;8.32;;;;;;;;;;6251476;23;20008;-87
2023/09/24 05:20:03;;;;;;;20.35;8.50;;;;;;;;;;6225151;23;20008;-87
2023/09/24 05:22:29;;;;;;;13.32;8.30;;;;;;;;;;6251517;23;20422;-86
2023/09/24 05:24:55;;;;;;;13.38;8.45;;;;;;;;;;6252036;23;20075;-86
2023/09/24 05:27:22;;;;;;;17.42;8.85;;;;;;;;;;6224476;23;20368;-89
2023/09/24 05:29:49;;;;;;;12.82;8.90;;;;;;;;;;6225154;23;20011;-88
2023/09/24 05:32:15;;;;;;;16.25;9.40;;;;;;;;;;6225348;23;20028;-88
2023/09/24 05:34:41;;;;;;;12.70;8.60;;;;;;;;;;6251515;23;20083;-87
2023/09/24 05:37:08;;;;;;;13.40;9.07;;;;;;;;;;6225031;23;20015;-88
2023/09/24 05:39:35;;;;;;;12.95;8.38;;;;;;;;;;6251770;23;20355;-88
2023/09/24 05:42:01;;;;;;;13.57;8.10;;;;;;;;;;6252068;23;20252;-89
2023/09/24 05:44:31;;;;;;;14.70;7.90;;;;;;;;;;6251387;23;20091;-89
2023/09/24 05:46:57;;;;;;;14.10;8.05;;;;;;;;;;6251621;23;20071;-87
2023/09/24 05:49:23;;;;;;;13.40;8.07;;;;;;;;;;6224780;23;20004;-86
2023/09/24 05:51:49;;;;;;;11.63;7.32;;;;;;;;;;6225053;23;19996;-86
2023/09/24 05:54:15;;;;;;;13.88;7.88;;;;;;;;;;6225063;23;20007;-87
2023/09/24 05:57:14;;;;;;;8.95;6.88;;;;;;;;;;6224842;23;20004;-87
2023/09/24 05:59:40;;;;;;;9.02;6.45;;;;;;;;;;6251555;23;20000;-87
2023/09/24 06:02:06;;;;;;;8.35;5.95;;;;;;;;;;6224966;23;20079;-87
2023/09/24 06:04:32;;;;;;;11.48;5.85;;;;;;;;;;6224992;23;20008;-86
2023/09/24 06:06:58;;;;;;;7.13;5.07;;;;;;;;;;6224896;23;20020;-87
2023/09/24 06:09:24;;;;;;;11.45;5.22;;;;;;;;;;6251156;23;20382;-86
2023/09/24 06:11:50;;;;;;;9.85;4.80;;;;;;;;;;6251641;23;19996;-86
2023/09/24 06:14:16;;;;;;;10.65;5.85;;;;;;;;;;6224833;23;20004;-87
2023/09/24 06:16:42;;;;;;;10.45;5.15;;;;;;;;;;6251359;23;20015;-87
2023/09/24 06:19:08;;;;;;;7.10;4.70;;;;;;;;;;6251366;23;20023;-87
2023/09/24 06:21:35;;;;;;;8.85;4.50;;;;;;;;;;6251471;23;20004;-86
2023/09/24 06:24:01;;;;;;;6.45;4.40;;;;;;;;;;6251446;23;20008;-87
2023/09/24 06:26:28;;;;;;;9.60;4.88;;;;;;;;;;6251444;22;19996;-87
2023/09/24 06:29:46;;;;;;;8.85;4.45;;;;;;;;;;6251407;23;20251;-87
2023/09/24 06:32:12;;;;;;;9.23;4.53;;;;;;;;;;6251298;23;20015;-86
2023/09/24 06:34:38;;;;;;;7.88;4.78;;;;;;;;;;6251389;23;20023;-87
2023/09/24 06:37:05;;;;;;;8.10;4.97;;;;;;;;;;6224856;23;20279;-87
2023/09/24 06:39:32;;;;;;;9.05;4.75;;;;;;;;;;6251706;23;20008;-87
2023/09/24 06:41:59;;;;;;;8.35;4.93;;;;;;;;;;6251693;23;20008;-87
2023/09/24 06:44:26;;;;;;;7.40;4.68;;;;;;;;;;6250955;23;20008;-87
2023/09/24 06:46:52;;;;;;;10.30;5.30;;;;;;;;;;6251028;23;20000;-87
2023/09/24 06:49:18;;;;;;;6.85;4.63;;;;;;;;;;6251659;23;20027;-88
2023/09/24 06:51:44;;;;;;;7.93;4.65;;;;;;;;;;6224612;23;20271;-89
2023/09/24 06:54:10;;;;;;;8.00;5.22;;;;;;;;;;6251225;23;20007;-88
2023/09/24 07:02:38;;;;;;;7.47;4.50;;;;;;;;;;6250933;23;20012;-87
2023/09/24 07:05:07;;;;;;;7.25;4.05;;;;;;;;;;6220679;23;20025;-88
2023/09/24 07:07:33;;;;;;;7.72;4.60;;;;;;;;;;6194544;23;20088;-88
2023/09/24 07:09:59;;;;;;;8.68;5.20;;;;;;;;;;6194518;23;20055;-86
2023/09/24 07:13:03;;;;;;;8.18;4.82;;;;;;;;;;6220408;23;20001;-87
2023/09/24 07:15:29;;;;;;;9.95;4.78;;;;;;;;;;6220867;23;20379;-86
2023/09/24 07:17:55;;;;;;;6.60;5.05;;;;;;;;;;6220776;23;20012;-86
2023/09/24 07:20:21;;;;;;;9.05;5.60;;;;;;;;;;6193845;23;20009;-83
2023/09/24 07:22:48;;;;;;;7.80;5.25;;;;;;;;;;6220730;23;20055;-86
2023/09/24 07:25:14;;;;;;;7.05;5.00;;;;;;;;;;6220571;23;20005;-85
2023/09/24 07:27:59;;;;;;;6.30;4.97;;;;;;;;;;6220959;23;20005;-85
2023/09/24 07:30:25;;;;;;;8.25;5.45;;;;;;;;;;6222114;23;20001;-95
2023/09/24 07:32:51;;;;;;;9.77;5.78;;;;;;;;;;6224766;23;20382;-92
2023/09/24 07:35:17;;;;;;;9.15;5.63;;;;;;;;;;6198976;23;20008;-87
2023/09/24 07:37:43;;;;;;;10.30;4.90;;;;;;;;;;6222666;23;20005;-91
2023/09/24 07:40:10;;;;;;;10.02;5.10;;;;;;;;;;6196392;23;20009;-91
2023/09/24 07:42:55;;;;;;;7.97;4.57;;;;;;;;;;6195855;23;20009;-92
2023/09/24 07:45:22;;;;;;;7.53;4.80;;;;;;;;;;6190608;23;20371;-91
2023/09/24 07:47:48;;;;;;;6.88;4.60;;;;;;;;;;6190741;23;20009;-89
2023/09/24 07:50:15;;;;;;;7.40;5.00;;;;;;;;;;6190448;23;20032;-91
2023/09/24 07:52:41;;;;;;;8.70;4.82;;;;;;;;;;6190742;23;20027;-91
2023/09/24 07:55:07;;;;;;;7.70;4.90;;;;;;;;;;6191009;23;20008;-90
2023/09/24 08:03:54;;;;;;;8.10;4.90;;;;;;;;;;6192298;23;20007;-91
2023/09/24 08:06:20;;;;;;;6.25;4.13;;;;;;;;;;6190793;23;20036;-92
2023/09/24 08:08:46;;;;;;;6.55;4.15;;;;;;;;;;6190983;23;20268;-90
2023/09/24 08:23:58;;;;;;;7.40;4.32;;;;;;;;;;5094501;27;20443;-91
2023/09/24 08:26:24;;;;;;;7.63;4.65;;;;;;;;;;5082422;28;20052;-92
2023/09/24 08:28:50;;;;;;;6.07;3.63;;;;;;;;;;5075053;28;20021;-92
2023/09/24 08:31:16;;;;;;;4.57;3.47;;;;;;;;;;5073536;28;20032;-89
2023/09/24 08:33:42;;;;;;;6.03;3.65;;;;;;;;;;5075437;28;20111;-89
2023/09/24 08:36:12;;;;;;;4.82;3.70;;;;;;;;;;5089603;28;20012;-89
2023/09/24 08:38:38;;;;;;;5.28;3.00;;;;;;;;;;5073511;28;20020;-91
2023/09/24 08:41:13;;;;;;;6.45;3.10;;;;;;;;;;5073628;28;20367;-90
2023/09/24 08:43:41;;;;;;;5.13;2.83;;;;;;;;;;5073416;28;20032;-90
2023/09/24 08:46:09;;;;;;;4.10;2.90;;;;;;;;;;5089910;28;20318;-90
2023/09/24 08:48:35;;;;;;;4.68;2.95;;;;;;;;;;5094965;28;20027;-92
2023/09/24 08:51:03;;;;;;;5.00;3.10;;;;;;;;;;5093344;28;20028;-90
2023/09/24 08:53:30;;;;;;;3.42;2.35;;;;;;;;;;5094457;28;20421;-91
2023/09/24 08:55:56;;;;;;;3.80;2.50;;;;;;;;;;5074246;28;20036;-90
2023/09/24 09:01:26;;;;;;;4.47;2.42;;;;;;;;;;5079604;28;20055;-89
2023/09/24 09:03:52;;;;;;;2.63;2.20;;;;;;;;;;5073263;28;20112;-91
2023/09/24 09:06:36;;;;;;;3.20;2.88;;;;;;;;;;5073269;28;20032;-90
2023/09/24 09:09:03;;;;;;;4.25;2.55;;;;;;;;;;5073715;28;20024;-91
2023/09/24 09:11:39;;;;;;;3.47;2.80;;;;;;;;;;5074162;28;20321;-89
2023/09/24 09:17:08;;;;;;;3.50;2.30;;;;;;;;;;5053919;28;20087;-91
2023/09/24 09:19:52;;;;;;;7.68;2.15;;;;;;;;;;5053651;28;20104;-90
2023/09/24 09:22:19;;;;;;;8.10;2.25;;;;;;;;;;5052527;28;20435;-90
2023/09/24 09:24:50;;;;;;;5.72;1.60;;;;;;;;;;5046440;28;20036;-90
2023/09/24 09:27:16;;;;;;;2.90;1.40;;;;;;;;;;5059453;28;20029;-91
2023/09/24 09:29:42;;;;;;;1.77;1.30;;;;;;;;;;5059465;28;20040;-88
2023/09/24 09:32:08;;;;;;;1.67;1.10;;;;;;;;;;5059571;28;20033;-87
2023/09/24 09:34:35;;;;;;;1.92;1.30;;;;;;;;;;5060433;28;20063;-90
2023/09/24 09:37:16;;;;;;;1.35;1.10;;;;;;;;;;5059506;28;20406;-90
2023/09/24 09:39:43;;;;;;;2.03;1.40;;;;;;;;;;5058850;28;20048;-90
2023/09/24 09:42:28;;;;;;;6.47;1.70;;;;;;;;;;5059204;28;20414;-87
2023/09/24 09:44:54;;;;;;;2.13;1.42;;;;;;;;;;5059812;28;20339;-90
2023/09/24 09:47:22;;;;;;;3.17;2.00;;;;;;;;;;5058553;28;20423;-89
2023/09/24 09:50:01;;;;;;;5.38;3.67;;;;;;;;;;5058920;28;20029;-89
2023/09/24 09:52:35;;;;;;;7.07;4.53;;;;;;;;;;5059443;28;20036;-90
2023/09/24 09:55:06;;;;;;;11.73;5.50;;;;;;;;;;5059332;28;20025;-90
2023/09/24 09:57:33;;;;;;;22.45;6.80;;;;;;;;;;5058681;28;20155;-90
2023/09/24 10:00:00;;;;;;;9.38;6.25;;;;;;;;;;5038840;28;20033;-90
2023/09/24 10:02:28;;;;;;;9.18;6.95;;;;;;;;;;5057598;28;20029;-90
2023/09/24 10:04:56;;;;;;;8.10;7.28;;;;;;;;;;5058480;28;20025;-89
2023/09/24 10:07:22;;;;;;;8.85;6.22;;;;;;;;;;5058218;28;20318;-91
2023/09/24 10:09:49;;;;;;;8.32;7.40;;;;;;;;;;5058595;28;20021;-91
2023/09/24 10:12:32;;;;;;;5.95;5.43;;;;;;;;;;5058666;28;20025;-89
2023/09/24 10:14:58;;;;;;;10.30;5.70;;;;;;;;;;5059202;28;20021;-90
2023/09/24 10:17:25;;;;;;;39.50;13.77;;;;;;;;;;5059326;28;20095;-91
2023/09/24 10:20:02;;;;;;;24.33;9.75;;;;;;;;;;5058287;28;20025;-90
2023/09/24 10:22:30;;;;;;;11.30;5.13;;;;;;;;;;5059292;28;20346;-89
2023/09/24 10:24:56;;;;;;;5.55;3.63;;;;;;;;;;5058169;28;20411;-90
2023/09/24 10:27:26;;;;;;;9.07;3.80;;;;;;;;;;5058210;28;20310;-90
2023/09/24 10:29:53;;;;;;;7.60;3.70;;;;;;;;;;5059083;28;20021;-90
2023/09/24 10:32:21;;;;;;;17.63;6.72;;;;;;;;;;5059320;28;20037;-90
2023/09/24 10:34:59;;;;;;;18.98;7.75;;;;;;;;;;5057392;28;20039;-91
2023/09/24 10:37:26;;;;;;;13.88;7.53;;;;;;;;;;5058096;28;20025;-91
2023/09/24 10:40:04;;;;;;;16.35;7.25;;;;;;;;;;5058084;28;20151;-90
2023/09/24 10:42:53;;;;;;;15.23;8.73;;;;;;;;;;5058376;28;20028;-90
2023/09/24 10:45:19;;;;;;;11.85;7.25;;;;;;;;;;5055825;28;20025;-90
2023/09/24 10:47:45;;;;;;;11.85;6.47;;;;;;;;;;5058074;28;20556;-84
2023/09/24 10:50:13;;;;;;;11.38;9.13;;;;;;;;;;5058343;28;20095;-91
2023/09/24 10:53:14;;;;;;;18.65;11.02;;;;;;;;;;5058820;28;20028;-89
2023/09/24 11:19:43;;;;;;;17.13;10.52;;;;;;;;;;5156728;27;20137;-92
2023/09/24 11:28:42;;;;;;;13.80;8.45;;;;;;;;;;5158608;27;20435;-95
2023/09/24 11:39:43;;;;;;;10.82;8.80;;;;;;;;;;5612679;22;20028;-90
2023/09/24 11:42:17;;;;;;;11.63;8.38;;;;;;;;;;5016662;28;20046;-89
2023/09/24 11:44:46;;;;;;;11.32;8.75;;;;;;;;;;5019691;28;20323;-92
2023/09/24 11:47:14;;;;;;;13.13;9.18;;;;;;;;;;5034720;28;20079;-93
2023/09/24 11:49:40;;;;;;;12.00;10.07;;;;;;;;;;5021698;28;20026;-93
2023/09/24 11:52:09;;;;;;;12.38;9.43;;;;;;;;;;5012497;28;20051;-93
2023/09/24 11:55:12;;;;;;;12.35;9.10;;;;;;;;;;5024373;28;20109;-92
2023/09/24 11:57:39;;;;;;;12.85;10.40;;;;;;;;;;5031929;28;20520;-93
2023/09/24 12:00:06;;;;;;;14.55;11.07;;;;;;;;;;5015422;28;20064;-93
2023/09/24 12:02:33;;;;;;;14.60;12.35;;;;;;;;;;5022448;28;20037;-93
2023/09/24 12:05:00;;;;;;;14.80;12.80;;;;;;;;;;5013762;28;20034;-94
2023/09/24 12:07:30;;;;;;;16.13;14.18;;;;;;;;;;5013744;28;20420;-94
2023/09/24 12:09:56;;;;;;;16.90;13.75;;;;;;;;;;5016139;28;20038;-92
2023/09/24 12:12:22;;;;;;;17.55;14.27;;;;;;;;;;5033370;28;20164;-92
2023/09/24 12:14:48;;;;;;;17.17;15.48;;;;;;;;;;5032964;28;20026;-91
2023/09/24 12:17:14;;;;;;;17.45;15.13;;;;;;;;;;5021716;28;20423;-90
2023/09/24 12:19:52;;;;;;;17.50;15.75;;;;;;;;;;5011012;28;20412;-94
2023/09/24 12:43:12;;;;;;;22.02;18.67;;;;;;;;;;4334099;22;20360;-83
2023/09/24 12:45:38;;;;;;;22.73;19.02;;;;;;;;;;4999410;28;20431;-82
2023/09/24 12:48:04;;;;;;;18.77;15.40;;;;;;;;;;4997255;28;20053;-85
2023/09/24 12:50:30;;;;;;;14.23;12.82;;;;;;;;;;4998522;28;20022;-82
2023/09/24 12:52:57;;;;;;;12.27;11.07;;;;;;;;;;4997758;28;20018;-82
2023/09/24 12:55:23;;;;;;;17.05;15.25;;;;;;;;;;4983754;28;20471;-81
2023/09/24 12:57:49;;;;;;;19.92;17.83;;;;;;;;;;5000282;28;20053;-95
2023/09/24 13:00:19;;;;;;;21.10;18.90;;;;;;;;;;4994147;28;20042;-94
2023/09/24 13:03:08;;;;;;;;;;;;;;;;;;;;;
2023/09/24 13:05:37;;;;;;;20.08;17.60;;;;;;;;;;4985551;28;20035;-94
2023/09/24 13:13:51;;;;;;;13.32;11.98;;;;;;;;;;4996044;28;20031;-94
2023/09/24 13:19:42;;;;;;;15.10;12.45;;;;;;;;;;4949141;28;20038;-94
2023/09/24 13:27:41;;;;;;;14.95;12.25;;;;;;;;;;5241221;22;20049;-95
2023/09/24 13:30:13;;;;;;;13.18;11.80;;;;;;;;;;5041058;28;20025;-94
2023/09/24 13:32:39;;;;;;;15.20;13.70;;;;;;;;;;5022218;28;20033;-93
2023/09/24 13:35:07;;;;;;;17.75;15.85;;;;;;;;;;5096336;23;20057;-94
2023/09/24 13:37:51;;;;;;;19.00;16.70;;;;;;;;;;5020465;28;20020;-93
2023/09/24 13:40:17;;;;;;;21.20;18.20;;;;;;;;;;5033304;28;20021;-94
2023/09/24 13:42:51;;;;;;;19.77;17.20;;;;;;;;;;5022538;28;20075;-95
2023/09/24 13:45:27;;;;;;;19.20;17.20;;;;;;;;;;4965857;28;20482;-96
2023/09/24 13:48:14;;;;;;;18.85;16.23;;;;;;;;;;5403571;22;20128;-94
2023/09/24 13:50:40;;;;;;;18.33;15.68;;;;;;;;;;5008062;28;20037;-96
2023/09/24 14:12:46;;;;;;;21.30;19.17;;;;;;;;;;5136597;27;20359;-95
2023/09/24 14:15:17;;;;;;;21.92;19.58;;;;;;;;;;5115080;28;20024;-94
2023/09/24 14:17:56;;;;;;;22.33;19.92;;;;;;;;;;5096957;28;20028;-95
2023/09/24 14:20:58;;;;;;;;;;;;;;;;;;;;;
2023/09/24 14:40:38;;;;;;;24.23;21.63;;;;;;;;;;5016167;28;20068;-96
2023/09/24 14:49:25;;;;;;;25.10;21.48;;;;;;;;;;5300459;23;20105;-94
2023/09/24 14:54:44;;;;;;;23.55;21.05;;;;;;;;;;4993538;28;20114;-95
2023/09/24 14:57:13;;;;;;;23.95;21.58;;;;;;;;;;4997220;28;20026;-95
2023/09/24 14:59:44;;;;;;;26.50;22.65;;;;;;;;;;4994721;28;20035;-94
2023/09/24 15:07:52;;;;;;;26.77;22.98;;;;;;;;;;5013698;28;20286;-93
2023/09/24 15:10:18;;;;;;;28.25;23.50;;;;;;;;;;5013911;28;20042;-93
2023/09/24 15:12:48;;;;;;;28.95;24.05;;;;;;;;;;5005605;28;20027;-92
2023/09/24 15:15:14;;;;;;;25.88;22.88;;;;;;;;;;5016446;28;20026;-92
2023/09/24 15:20:44;;;;;;;29.75;26.50;;;;;;;;;;5000949;28;20486;-93
2023/09/24 15:23:11;;;;;;;28.00;25.23;;;;;;;;;;4997437;28;20080;-93
2023/09/24 15:25:38;;;;;;;29.40;26.40;;;;;;;;;;4996653;28;20023;-93
2023/09/24 15:28:04;;;;;;;28.20;25.30;;;;;;;;;;4996541;28;20095;-91
2023/09/24 15:30:30;;;;;;;27.38;24.50;;;;;;;;;;4996523;28;20058;-92
2023/09/24 15:32:59;;;;;;;27.20;24.50;;;;;;;;;;4996529;28;20058;-91
2023/09/24 15:35:26;;;;;;;26.92;24.08;;;;;;;;;;4996479;28;20287;-93
2023/09/24 15:37:52;;;;;;;26.38;23.58;;;;;;;;;;4981373;28;20041;-93
2023/09/24 15:40:18;;;;;;;27.48;24.50;;;;;;;;;;4980980;28;20051;-92
2023/09/24 15:42:44;;;;;;;26.48;23.67;;;;;;;;;;4981143;28;20141;-93
2023/09/24 15:45:11;;;;;;;27.13;24.52;;;;;;;;;;4996394;28;20113;-93
2023/09/24 15:47:42;;;;;;;28.17;24.25;;;;;;;;;;4996065;28;20023;-94
2023/09/24 15:50:09;;;;;;;29.55;25.20;;;;;;;;;;4996028;28;20039;-94
2023/09/24 15:52:35;;;;;;;22.50;20.17;;;;;;;;;;4980733;28;20019;-94
2023/09/24 15:55:01;;;;;;;23.58;21.27;;;;;;;;;;4996137;28;20035;-93
2023/09/24 15:57:28;;;;;;;22.20;19.92;;;;;;;;;;4980680;28;20058;-93
2023/09/24 15:59:54;;;;;;;22.05;19.30;;;;;;;;;;4980753;28;20027;-94
2023/09/24 16:02:20;;;;;;;21.35;19.25;;;;;;;;;;4980529;28;20057;-92
2023/09/24 16:04:46;;;;;;;20.75;18.60;;;;;;;;;;4979566;28;20061;-93
2023/09/24 16:07:12;;;;;;;21.02;18.80;;;;;;;;;;4994680;28;20038;-93
2023/09/24 16:09:38;;;;;;;20.77;18.52;;;;;;;;;;4999899;28;20412;-90
2023/09/24 16:12:05;;;;;;;22.40;20.00;;;;;;;;;;4999843;28;20026;-93
2023/09/24 16:14:31;;;;;;;22.30;19.90;;;;;;;;;;4999889;28;20022;-93
2023/09/24 16:16:57;;;;;;;22.92;20.25;;;;;;;;;;4999773;28;20121;-93
2023/09/24 16:19:23;;;;;;;21.80;19.70;;;;;;;;;;4986524;28;20027;-93
2023/09/24 16:21:50;;;;;;;22.80;20.50;;;;;;;;;;5009640;28;20033;-93
2023/09/24 16:24:17;;;;;;;22.73;20.52;;;;;;;;;;5000818;28;20109;-92
2023/09/24 16:26:43;;;;;;;21.30;19.20;;;;;;;;;;5002022;28;20316;-94
2023/09/24 16:29:09;;;;;;;21.17;18.98;;;;;;;;;;5002702;28;20041;-91
2023/09/24 16:31:36;;;;;;;15.93;14.40;;;;;;;;;;4990124;28;20037;-96
2023/09/24 16:34:02;;;;;;;5.40;4.90;;;;;;;;;;5019558;28;20436;-93
2023/09/24 16:36:29;;;;;;;5.20;4.35;;;;;;;;;;5019084;28;20034;-93
2023/09/24 16:38:55;;;;;;;4.82;4.35;;;;;;;;;;5018240;28;20053;-94
2023/09/24 16:41:21;;;;;;;4.82;4.30;;;;;;;;;;4994341;28;20026;-91
2023/09/24 16:43:47;;;;;;;5.55;4.32;;;;;;;;;;5002707;28;20382;-91
2023/09/24 16:46:13;;;;;;;4.15;3.75;;;;;;;;;;5037917;28;20116;-91
2023/09/24 16:48:39;;;;;;;5.13;3.85;;;;;;;;;;5020903;28;20030;-93
2023/09/24 16:51:06;;;;;;;4.32;3.80;;;;;;;;;;5017340;28;20053;-92
2023/09/24 16:53:32;;;;;;;3.88;3.50;;;;;;;;;;5019138;28;20029;-90
2023/09/24 16:55:58;;;;;;;3.92;3.55;;;;;;;;;;5017473;28;20037;-93
2023/09/24 16:58:25;;;;;;;4.85;3.63;;;;;;;;;;5019065;28;20049;-88
2023/09/24 17:00:51;;;;;;;4.28;3.40;;;;;;;;;;5017999;28;20034;-88
2023/09/24 17:06:24;;;;;;;5.50;4.18;;;;;;;;;;4990783;28;20440;-84
2023/09/24 17:08:50;;;;;;;4.18;3.78;;;;;;;;;;4962101;28;20058;-81
2023/09/24 17:11:16;;;;;;;4.72;4.32;;;;;;;;;;4978347;28;20062;-81
2023/09/24 17:13:42;;;;;;;5.45;4.25;;;;;;;;;;4977816;28;20030;-81
2023/09/24 17:16:18;;;;;;;5.57;4.15;;;;;;;;;;4965835;28;20028;-81
2023/09/24 17:18:44;;;;;;;6.82;4.60;;;;;;;;;;4964007;28;20030;-81
2023/09/24 17:21:11;;;;;;;6.40;5.43;;;;;;;;;;4964481;28;20057;-81
2023/09/24 17:23:38;;;;;;;5.93;5.25;;;;;;;;;;4959383;29;20317;-81
2023/09/24 17:26:16;;;;;;;8.38;5.65;;;;;;;;;;4969285;28;20444;-81
2023/09/24 17:28:42;;;;;;;6.63;5.88;;;;;;;;;;4976842;28;20106;-81
2023/09/24 17:31:21;;;;;;;10.35;6.95;;;;;;;;;;4976069;28;20031;-80
2023/09/24 17:33:47;;;;;;;15.52;7.65;;;;;;;;;;4967180;28;20023;-81